createdAt,value
2017-10-18T00:02:24.720Z,34.07
2017-10-18T00:04:52.118Z,34.70
2017-10-18T00:07:19.514Z,35.87
2017-10-18T00:09:46.902Z,41.13
2017-10-18T00:12:14.305Z,39.53
2017-10-18T00:14:41.705Z,36.10
2017-10-18T00:17:09.106Z,40.90
2017-10-18T00:19:36.561Z,42.03
2017-10-18T00:22:03.982Z,40.40
2017-10-18T00:24:31.365Z,35.80
2017-10-18T00:26:58.802Z,36.53
2017-10-18T00:29:26.194Z,36.13
2017-10-18T00:31:53.589Z,36.20
2017-10-18T00:34:20.999Z,33.97
2017-10-18T00:36:48.410Z,32.80
2017-10-18T00:39:15.797Z,34.47
2017-10-18T00:41:43.205Z,36.20
2017-10-18T00:44:10.613Z,38.83
2017-10-18T00:46:38.018Z,37.30
2017-10-18T00:49:05.410Z,33.77
2017-10-18T00:51:32.802Z,36.20
2017-10-18T00:54:00.197Z,36.67
2017-10-18T00:56:27.606Z,35.07
2017-10-18T00:58:54.997Z,32.07
2017-10-18T01:01:22.385Z,37.70
2017-10-18T01:03:49.805Z,36.60
2017-10-18T01:06:17.211Z,35.23
2017-10-18T01:08:44.605Z,35.57
2017-10-18T01:11:12.007Z,44.23
2017-10-18T01:13:39.409Z,45.73
2017-10-18T01:16:06.826Z,42.43
2017-10-18T01:18:34.245Z,41.17
2017-10-18T01:21:01.624Z,45.67
2017-10-18T01:23:29.018Z,39.73
2017-10-18T01:25:56.443Z,38.60
2017-10-18T01:28:23.842Z,40.57
2017-10-18T01:30:51.238Z,41.30
2017-10-18T01:33:18.643Z,41.80
2017-10-18T01:35:46.065Z,42.67
2017-10-18T01:38:13.451Z,41.20
2017-10-18T01:40:40.854Z,41.70
2017-10-18T01:43:08.254Z,44.33
2017-10-18T01:45:35.650Z,44.20
2017-10-18T01:48:03.062Z,40.63
2017-10-18T01:50:30.450Z,44.97
2017-10-18T01:52:57.850Z,40.60
2017-10-18T01:55:25.258Z,41.93
2017-10-18T01:57:52.653Z,42.43
2017-10-18T02:00:20.049Z,35.53
2017-10-18T02:02:47.494Z,34.77
2017-10-18T02:05:14.898Z,36.63
2017-10-18T02:07:42.318Z,38.70
2017-10-18T02:10:09.730Z,38.77
2017-10-18T02:12:37.113Z,40.47
2017-10-18T02:15:04.534Z,40.20
2017-10-18T02:17:31.966Z,39.00
2017-10-18T02:19:59.362Z,37.90
2017-10-18T02:22:26.754Z,37.90
2017-10-18T02:24:54.162Z,41.10
2017-10-18T02:27:21.553Z,37.10
2017-10-18T02:29:48.966Z,41.57
2017-10-18T02:32:16.370Z,41.63
2017-10-18T02:34:43.766Z,40.70
2017-10-18T02:37:11.165Z,40.77
2017-10-18T02:39:38.586Z,40.27
2017-10-18T02:42:06.009Z,40.40
2017-10-18T02:44:33.434Z,39.07
2017-10-18T02:47:00.842Z,38.57
2017-10-18T02:49:28.238Z,39.10
2017-10-18T02:51:55.632Z,35.90
2017-10-18T02:54:23.041Z,38.43
2017-10-18T02:56:50.432Z,36.67
2017-10-18T02:59:17.829Z,37.80
2017-10-18T03:01:45.244Z,38.33
2017-10-18T03:04:12.641Z,37.43
2017-10-18T03:06:40.030Z,39.40
2017-10-18T03:09:07.442Z,38.33
2017-10-18T03:11:34.857Z,39.00
2017-10-18T03:14:02.266Z,37.83
2017-10-18T03:16:29.691Z,38.50
2017-10-18T03:18:57.126Z,39.27
2017-10-18T03:21:24.509Z,39.77
2017-10-18T03:23:51.910Z,40.93
2017-10-18T03:26:19.312Z,37.47
2017-10-18T03:28:46.701Z,38.20
2017-10-18T03:31:14.107Z,36.93
2017-10-18T03:33:41.505Z,37.97
2017-10-18T03:36:08.913Z,39.03
2017-10-18T03:38:36.328Z,37.47
2017-10-18T03:41:03.718Z,37.50
2017-10-18T03:43:31.105Z,36.30
2017-10-18T03:45:58.525Z,36.07
2017-10-18T03:48:25.918Z,38.37
2017-10-18T03:50:53.309Z,37.37
2017-10-18T03:53:20.709Z,37.13
2017-10-18T03:55:48.122Z,38.53
2017-10-18T03:58:15.522Z,37.13
2017-10-18T04:00:42.929Z,38.57
2017-10-18T04:03:10.327Z,35.90
2017-10-18T04:05:37.731Z,34.70
2017-10-18T04:08:05.130Z,35.97
2017-10-18T04:10:32.528Z,36.90
2017-10-18T04:12:59.914Z,35.33
2017-10-18T04:15:27.330Z,38.33
2017-10-18T04:17:54.725Z,37.23
2017-10-18T04:20:22.122Z,39.43
2017-10-18T04:22:49.525Z,42.97
2017-10-18T04:25:16.922Z,40.00
2017-10-18T04:27:44.314Z,39.10
2017-10-18T04:30:11.718Z,40.13
2017-10-18T04:32:39.118Z,36.63
2017-10-18T04:35:06.526Z,34.27
2017-10-18T04:37:33.934Z,36.10
2017-10-18T04:40:01.321Z,36.10
2017-10-18T04:42:28.710Z,37.80
2017-10-18T04:44:56.117Z,36.23
2017-10-18T04:47:23.522Z,36.43
2017-10-18T04:49:50.927Z,32.77
2017-10-18T04:52:18.333Z,35.17
2017-10-18T04:54:45.725Z,33.60
2017-10-18T04:57:13.114Z,36.50
2017-10-18T04:59:40.536Z,35.73
2017-10-18T05:02:07.922Z,34.97
2017-10-18T05:04:35.332Z,34.80
2017-10-18T05:07:02.743Z,34.80
2017-10-18T05:09:30.133Z,34.17
2017-10-18T05:11:57.525Z,33.03
2017-10-18T05:14:25.378Z,36.10
2017-10-18T05:16:52.783Z,37.73
2017-10-18T05:19:20.200Z,34.87
2017-10-18T05:21:47.607Z,38.53
2017-10-18T05:24:15.013Z,35.10
2017-10-18T05:26:42.406Z,34.10
2017-10-18T05:29:10.676Z,33.83
2017-10-18T05:31:38.047Z,33.40
2017-10-18T05:34:05.461Z,33.20
2017-10-18T05:36:32.936Z,35.17
2017-10-18T05:39:00.317Z,38.17
2017-10-18T05:41:27.718Z,34.27
2017-10-18T05:43:55.147Z,36.63
2017-10-18T05:46:22.567Z,36.70
2017-10-18T05:48:49.975Z,33.13
2017-10-18T05:51:17.367Z,31.83
2017-10-18T05:53:44.758Z,33.07
2017-10-18T05:56:12.150Z,30.50
2017-10-18T05:58:39.566Z,31.50
2017-10-18T06:01:06.981Z,30.60
2017-10-18T06:03:34.431Z,31.03
2017-10-18T06:06:01.830Z,35.40
2017-10-18T06:08:29.254Z,31.80
2017-10-18T06:10:56.662Z,30.70
2017-10-18T06:13:24.057Z,32.30
2017-10-18T06:15:51.486Z,34.53
2017-10-18T06:18:18.881Z,34.73
2017-10-18T06:20:46.326Z,36.10
2017-10-18T06:23:13.701Z,34.90
2017-10-18T06:25:41.122Z,32.73
2017-10-18T06:28:08.532Z,32.50
2017-10-18T06:30:35.929Z,32.17
2017-10-18T06:33:03.348Z,32.50
2017-10-18T06:35:30.757Z,34.93
2017-10-18T06:37:58.875Z,31.10
2017-10-18T06:40:26.259Z,35.57
2017-10-18T06:42:53.682Z,31.17
2017-10-18T06:45:21.069Z,30.97
2017-10-18T06:47:48.457Z,31.17
2017-10-18T06:50:15.866Z,31.67
2017-10-18T06:52:43.261Z,32.33
2017-10-18T06:55:10.650Z,32.33
2017-10-18T06:57:38.135Z,29.93
2017-10-18T07:00:05.526Z,30.93
2017-10-18T07:02:32.941Z,28.90
2017-10-18T07:05:00.387Z,29.47
2017-10-18T07:07:27.815Z,30.57
2017-10-18T07:09:55.283Z,31.83
2017-10-18T07:12:22.687Z,29.73
2017-10-18T07:14:50.084Z,30.03
2017-10-18T07:17:17.506Z,32.63
2017-10-18T07:19:44.953Z,32.20
2017-10-18T07:22:12.413Z,30.83
2017-10-18T07:24:39.789Z,30.37
2017-10-18T07:27:07.204Z,30.50
2017-10-18T07:29:34.630Z,29.70
2017-10-18T07:32:02.036Z,31.07
2017-10-18T07:34:29.482Z,31.47
2017-10-18T07:36:56.898Z,29.80
2017-10-18T07:39:24.293Z,30.23
2017-10-18T07:41:51.717Z,30.47
2017-10-18T07:44:19.150Z,29.47
2017-10-18T07:46:46.546Z,28.50
2017-10-18T07:49:13.954Z,28.23
2017-10-18T07:51:41.366Z,28.80
2017-10-18T07:54:09.070Z,28.90
2017-10-18T07:56:36.553Z,30.03
2017-10-18T07:59:03.994Z,28.83
2017-10-18T08:01:31.394Z,26.80
2017-10-18T08:03:58.816Z,28.37
2017-10-18T08:06:26.203Z,26.50
2017-10-18T08:08:53.629Z,26.07
2017-10-18T08:11:21.078Z,25.30
2017-10-18T08:13:48.466Z,24.70
2017-10-18T08:16:15.868Z,24.37
2017-10-18T08:18:43.298Z,23.80
2017-10-18T08:21:10.725Z,24.20
2017-10-18T08:23:38.106Z,25.40
2017-10-18T08:26:05.514Z,23.00
2017-10-18T08:28:32.930Z,22.10
2017-10-18T08:31:00.354Z,21.50
2017-10-18T08:33:27.780Z,24.13
2017-10-18T08:35:55.200Z,20.93
2017-10-18T08:38:22.598Z,20.37
2017-10-18T08:40:50.029Z,19.90
2017-10-18T08:43:17.417Z,19.40
2017-10-18T08:45:44.838Z,19.70
2017-10-18T08:48:12.262Z,20.17
2017-10-18T08:50:39.713Z,19.77
2017-10-18T08:53:07.128Z,21.17
2017-10-18T08:55:34.610Z,19.17
2017-10-18T08:58:02.014Z,20.27
2017-10-18T09:00:29.457Z,21.50
2017-10-18T09:02:56.863Z,19.80
2017-10-18T09:05:24.307Z,19.93
2017-10-18T09:07:51.739Z,19.30
2017-10-18T09:10:19.193Z,18.27
2017-10-18T09:12:46.611Z,18.87
2017-10-18T09:15:14.055Z,17.63
2017-10-18T09:17:41.467Z,18.63
2017-10-18T09:20:08.860Z,18.10
2017-10-18T09:22:36.290Z,19.43
2017-10-18T09:25:03.710Z,19.17
2017-10-18T09:27:31.099Z,18.90
2017-10-18T09:29:58.505Z,18.50
2017-10-18T09:32:25.940Z,19.93
2017-10-18T09:34:53.377Z,20.17
2017-10-18T09:37:20.787Z,20.10
2017-10-18T09:39:48.189Z,18.10
2017-10-18T09:42:15.610Z,18.30
2017-10-18T09:44:42.997Z,18.43
2017-10-18T09:47:10.425Z,17.23
2017-10-18T09:49:37.821Z,16.67
2017-10-18T09:52:05.217Z,16.47
2017-10-18T09:54:32.622Z,16.67
2017-10-18T09:57:00.051Z,17.00
2017-10-18T09:59:27.419Z,21.23
2017-10-18T10:01:54.822Z,16.70
2017-10-18T10:04:22.220Z,17.47
2017-10-18T10:06:49.606Z,18.20
2017-10-18T10:09:17.006Z,16.67
2017-10-18T10:11:44.402Z,15.80
2017-10-18T10:14:11.798Z,14.80
2017-10-18T10:16:39.204Z,14.63
2017-10-18T10:19:06.595Z,15.10
2017-10-18T10:21:33.987Z,16.00
2017-10-18T10:24:01.386Z,14.67
2017-10-18T10:26:28.778Z,15.63
2017-10-18T10:28:56.166Z,14.90
2017-10-18T10:31:23.578Z,16.67
2017-10-18T10:33:50.978Z,15.53
2017-10-18T10:36:18.378Z,15.30
2017-10-18T10:38:45.783Z,15.67
2017-10-18T10:41:13.169Z,15.80
2017-10-18T10:43:40.587Z,16.20
2017-10-18T10:46:08.009Z,15.53
2017-10-18T10:48:35.393Z,15.13
2017-10-18T10:51:02.827Z,14.07
2017-10-18T10:53:30.225Z,14.20
2017-10-18T10:55:57.618Z,13.83
2017-10-18T10:58:25.011Z,12.63
2017-10-18T11:00:52.415Z,14.60
2017-10-18T11:03:19.802Z,13.63
2017-10-18T11:05:47.190Z,14.07
2017-10-18T11:08:14.599Z,14.93
2017-10-18T11:10:41.995Z,13.83
2017-10-18T11:13:09.378Z,13.60
2017-10-18T11:15:36.784Z,15.97
2017-10-18T11:18:04.170Z,13.77
2017-10-18T11:20:31.616Z,13.80
2017-10-18T11:22:59.007Z,14.90
2017-10-18T11:25:26.393Z,15.20
2017-10-18T11:27:53.788Z,14.30
2017-10-18T11:30:21.207Z,14.20
2017-10-18T11:32:48.606Z,14.23
2017-10-18T11:35:15.990Z,15.60
2017-10-18T11:37:43.398Z,14.83
2017-10-18T11:40:10.790Z,13.17
2017-10-18T11:42:38.185Z,14.13
2017-10-18T11:45:05.597Z,14.00
2017-10-18T11:47:32.985Z,14.77
2017-10-18T11:50:00.382Z,14.43
2017-10-18T11:52:27.785Z,14.00
2017-10-18T11:54:55.181Z,13.90
2017-10-18T11:57:22.567Z,13.87
2017-10-18T11:59:49.973Z,13.33
2017-10-18T12:02:17.367Z,14.53
2017-10-18T12:04:44.758Z,13.67
2017-10-18T12:07:12.162Z,12.90
2017-10-18T12:09:39.558Z,12.93
2017-10-18T12:12:06.987Z,12.50
2017-10-18T12:14:34.361Z,12.70
2017-10-18T12:17:01.754Z,13.83
2017-10-18T12:19:29.154Z,13.57
2017-10-18T12:21:56.558Z,14.13
2017-10-18T12:24:23.950Z,15.07
2017-10-18T12:26:51.337Z,15.27
2017-10-18T12:29:18.743Z,14.07
2017-10-18T12:31:46.145Z,14.90
2017-10-18T12:34:13.527Z,13.80
2017-10-18T12:36:40.928Z,13.60
2017-10-18T12:39:08.320Z,14.30
2017-10-18T12:41:35.714Z,13.53
2017-10-18T12:44:03.109Z,14.33
2017-10-18T12:46:30.506Z,14.47
2017-10-18T12:48:57.902Z,14.03
2017-10-18T12:51:25.321Z,14.40
2017-10-18T12:53:52.706Z,13.93
2017-10-18T12:56:20.765Z,14.20
2017-10-18T12:58:48.173Z,14.23
2017-10-18T13:01:15.570Z,14.00
2017-10-18T13:03:42.963Z,13.70
2017-10-18T13:06:11.609Z,13.97
2017-10-18T13:08:39.006Z,13.70
2017-10-18T13:11:06.406Z,13.07
2017-10-18T13:13:33.806Z,13.23
2017-10-18T13:16:01.199Z,13.53
2017-10-18T13:18:28.601Z,13.60
2017-10-18T13:20:56.002Z,13.30
2017-10-18T13:23:23.389Z,13.17
2017-10-18T13:25:50.818Z,13.63
2017-10-18T13:28:18.214Z,13.27
2017-10-18T13:30:45.602Z,14.43
2017-10-18T13:33:13.009Z,14.20
2017-10-18T13:35:41.221Z,14.43
2017-10-18T13:38:08.610Z,14.27
2017-10-18T13:40:36.014Z,13.57
2017-10-18T13:43:03.410Z,14.70
2017-10-18T13:45:30.802Z,16.30
2017-10-18T13:47:58.207Z,16.70
2017-10-18T13:50:25.594Z,15.50
2017-10-18T13:52:52.990Z,14.90
2017-10-18T13:55:20.394Z,16.80
2017-10-18T13:57:47.790Z,15.57
2017-10-18T14:00:15.179Z,17.53
2017-10-18T14:02:42.587Z,17.47
2017-10-18T14:05:09.974Z,16.00
2017-10-18T14:07:37.415Z,16.80
2017-10-18T14:10:04.819Z,17.63
2017-10-18T14:12:32.217Z,17.20
2017-10-18T14:14:59.976Z,18.00
2017-10-18T14:17:27.425Z,17.50
2017-10-18T14:19:54.895Z,17.50
2017-10-18T14:22:22.323Z,16.00
2017-10-18T14:24:49.786Z,17.63
2017-10-18T14:27:17.217Z,16.70
2017-10-18T14:29:44.660Z,15.80
2017-10-18T14:32:12.063Z,14.87
2017-10-18T14:34:39.505Z,17.13
2017-10-18T14:37:08.131Z,17.40
2017-10-18T14:39:35.534Z,17.10
2017-10-18T14:42:03.070Z,16.90
2017-10-18T14:44:30.457Z,15.67
2017-10-18T14:46:57.863Z,16.00
2017-10-18T14:49:25.259Z,15.80
2017-10-18T14:51:54.345Z,14.47
2017-10-18T14:54:21.742Z,15.20
2017-10-18T14:56:49.141Z,14.90
2017-10-18T14:59:16.538Z,15.63
2017-10-18T15:01:43.946Z,16.57
2017-10-18T15:04:11.330Z,14.60
2017-10-18T15:06:38.717Z,16.17
2017-10-18T15:09:06.129Z,14.93
2017-10-18T15:11:33.522Z,13.60
2017-10-18T15:14:00.915Z,14.17
2017-10-18T15:16:28.317Z,13.23
2017-10-18T15:18:55.711Z,12.53
2017-10-18T15:21:23.101Z,13.27
2017-10-18T15:23:50.510Z,14.30
2017-10-18T15:26:17.908Z,13.70
2017-10-18T15:28:45.297Z,13.67
2017-10-18T15:31:12.697Z,14.10
2017-10-18T15:33:40.101Z,13.57
2017-10-18T15:36:07.486Z,14.40
2017-10-18T15:38:34.890Z,14.03
2017-10-18T15:41:02.290Z,14.57
2017-10-18T15:43:29.687Z,15.10
2017-10-18T15:45:57.086Z,15.63
2017-10-18T15:48:24.486Z,14.23
2017-10-18T15:50:51.878Z,14.07
2017-10-18T15:53:19.281Z,14.50
2017-10-18T15:55:46.678Z,15.37
2017-10-18T15:58:14.070Z,15.20
2017-10-18T16:00:41.491Z,16.13
2017-10-18T16:03:08.880Z,14.90
2017-10-18T16:05:36.278Z,14.90
2017-10-18T16:08:03.686Z,14.87
2017-10-18T16:10:31.073Z,14.63
2017-10-18T16:12:58.469Z,15.50
2017-10-18T16:15:25.876Z,16.23
2017-10-18T16:17:53.269Z,16.00
2017-10-18T16:20:20.663Z,15.93
2017-10-18T16:22:50.130Z,16.30
2017-10-18T16:25:17.518Z,15.07
2017-10-18T16:27:44.916Z,15.30
2017-10-18T16:30:12.316Z,15.77
2017-10-18T16:32:39.706Z,15.10
2017-10-18T16:35:07.097Z,15.57
2017-10-18T16:37:34.501Z,15.33
2017-10-18T16:40:01.894Z,13.87
2017-10-18T16:42:29.290Z,15.93
2017-10-18T16:44:56.686Z,16.73
2017-10-18T16:47:24.089Z,14.87
2017-10-18T16:49:51.474Z,15.23
2017-10-18T16:52:18.882Z,16.30
2017-10-18T16:54:46.278Z,14.87
2017-10-18T16:57:13.671Z,15.00
2017-10-18T16:59:41.078Z,15.53
2017-10-18T17:02:08.474Z,14.00
2017-10-18T17:04:35.861Z,14.37
2017-10-18T17:07:03.274Z,14.53
2017-10-18T17:09:30.661Z,15.60
2017-10-18T17:11:58.061Z,14.93
2017-10-18T17:14:25.462Z,15.37
2017-10-18T17:16:52.853Z,15.20
2017-10-18T17:19:20.246Z,16.43
2017-10-18T17:21:47.652Z,13.77
2017-10-18T17:24:15.052Z,13.77
2017-10-18T17:26:42.447Z,14.90
2017-10-18T17:29:09.854Z,15.13
2017-10-18T17:31:37.245Z,17.50
2017-10-18T17:34:04.642Z,16.60
2017-10-18T17:36:32.133Z,16.10
2017-10-18T17:38:59.506Z,15.93
2017-10-18T17:41:26.899Z,17.60
2017-10-18T17:43:54.307Z,16.70
2017-10-18T17:46:21.693Z,16.67
2017-10-18T17:48:49.099Z,16.53
2017-10-18T17:51:16.489Z,17.30
2017-10-18T17:53:43.885Z,18.77
2017-10-18T17:56:11.273Z,18.00
2017-10-18T17:58:38.674Z,16.50
2017-10-18T18:01:06.066Z,16.93
2017-10-18T18:03:36.867Z,16.70
2017-10-18T18:06:04.275Z,15.60
2017-10-18T18:08:31.671Z,15.00
2017-10-18T18:11:13.261Z,16.33
2017-10-18T18:13:40.664Z,16.80
2017-10-18T18:16:08.050Z,16.90
2017-10-18T18:18:35.470Z,16.40
2017-10-18T18:21:11.466Z,15.97
2017-10-18T18:23:38.880Z,17.73
2017-10-18T18:26:06.282Z,20.53
2017-10-18T18:28:33.673Z,16.73
2017-10-18T18:31:01.078Z,16.50
2017-10-18T18:33:28.474Z,16.10
2017-10-18T18:35:55.861Z,16.50
2017-10-18T18:38:27.103Z,17.03
2017-10-18T18:40:54.923Z,15.60
2017-10-18T18:43:22.509Z,17.37
2017-10-18T18:45:51.634Z,16.33
2017-10-18T18:48:19.404Z,18.90
2017-10-18T18:50:47.045Z,16.57
2017-10-18T18:53:14.659Z,16.50
2017-10-18T18:55:42.470Z,17.07
2017-10-18T18:58:09.908Z,17.53
2017-10-18T19:00:37.485Z,17.47
2017-10-18T19:03:05.110Z,17.13
2017-10-18T19:05:36.018Z,16.70
2017-10-18T19:08:03.426Z,16.80
2017-10-18T19:10:30.819Z,18.50
2017-10-18T19:12:58.254Z,17.80
2017-10-18T19:15:25.668Z,17.10
2017-10-18T19:17:53.052Z,17.10
2017-10-18T19:20:20.446Z,17.83
2017-10-18T19:22:47.894Z,17.20
2017-10-18T19:25:15.289Z,17.03
2017-10-18T19:27:42.677Z,16.50
2017-10-18T19:30:10.094Z,17.33
2017-10-18T19:32:37.488Z,17.07
2017-10-18T19:35:04.895Z,17.30
2017-10-18T19:37:32.321Z,16.67
2017-10-18T19:39:59.715Z,16.80
2017-10-18T19:42:27.102Z,18.20
2017-10-18T19:44:55.623Z,18.80
2017-10-18T19:47:23.019Z,18.60
2017-10-18T19:49:50.406Z,18.33
2017-10-18T19:52:17.817Z,16.67
2017-10-18T19:54:45.225Z,17.20
2017-10-18T19:57:12.629Z,17.77
2017-10-18T19:59:45.762Z,17.57
2017-10-18T20:02:13.150Z,18.87
2017-10-18T20:04:40.543Z,17.87
2017-10-18T20:07:07.966Z,17.93
2017-10-18T20:09:35.352Z,18.00
2017-10-18T20:12:02.738Z,18.57
2017-10-18T20:14:30.158Z,18.20
2017-10-18T20:16:57.561Z,18.70
2017-10-18T20:19:24.953Z,20.23
2017-10-18T20:21:52.365Z,20.03
2017-10-18T20:24:19.757Z,18.80
2017-10-18T20:26:47.155Z,18.90
2017-10-18T20:29:14.587Z,19.00
2017-10-18T20:31:41.970Z,18.77
2017-10-18T20:34:09.374Z,19.77
2017-10-18T20:36:36.774Z,19.70
2017-10-18T20:39:04.171Z,20.37
2017-10-18T20:41:40.105Z,20.53
2017-10-18T20:44:07.495Z,19.03
2017-10-18T20:46:34.886Z,20.53
2017-10-18T20:49:02.293Z,18.93
2017-10-18T20:51:29.682Z,19.63
2017-10-18T20:53:57.074Z,20.60
2017-10-18T20:56:24.473Z,18.70
2017-10-18T20:58:51.873Z,18.70
2017-10-18T21:01:19.262Z,19.60
2017-10-18T21:03:46.666Z,19.10
2017-10-18T21:06:14.065Z,20.10
2017-10-18T21:08:41.465Z,21.03
2017-10-18T21:11:08.870Z,20.03
2017-10-18T21:13:36.278Z,19.27
2017-10-18T21:16:03.661Z,20.00
2017-10-18T21:18:31.069Z,19.30
2017-10-18T21:20:58.453Z,21.47
2017-10-18T21:23:25.851Z,20.93
2017-10-18T21:25:53.262Z,20.07
2017-10-18T21:28:20.649Z,19.63
2017-10-18T21:30:48.050Z,20.10
2017-10-18T21:33:15.459Z,23.23
2017-10-18T21:35:42.850Z,22.20
2017-10-18T21:38:10.246Z,20.10
2017-10-18T21:40:37.659Z,20.63
2017-10-18T21:43:05.050Z,21.67
2017-10-18T21:45:32.446Z,22.27
2017-10-18T21:47:59.851Z,21.90
2017-10-18T21:50:27.247Z,20.07
2017-10-18T21:52:54.637Z,20.13
2017-10-18T21:55:22.041Z,20.97
2017-10-18T21:57:49.433Z,20.30
2017-10-18T22:00:16.830Z,23.50
2017-10-18T22:02:44.241Z,21.37
2017-10-18T22:05:11.634Z,20.30
2017-10-18T22:07:39.031Z,19.80
2017-10-18T22:10:06.438Z,21.20
2017-10-18T22:12:33.822Z,20.97
2017-10-18T22:15:01.222Z,21.80
2017-10-18T22:17:28.629Z,21.13
2017-10-18T22:19:56.026Z,22.17
2017-10-18T22:22:23.421Z,23.60
2017-10-18T22:24:50.826Z,21.50
2017-10-18T22:27:18.215Z,23.00
2017-10-18T22:29:45.605Z,21.90
2017-10-18T22:32:13.015Z,21.73
2017-10-18T22:34:40.411Z,21.43
2017-10-18T22:37:07.794Z,21.63
2017-10-18T22:39:35.195Z,21.90
2017-10-18T22:42:02.585Z,23.17
2017-10-18T22:44:29.982Z,22.23
2017-10-18T22:46:57.401Z,22.20
2017-10-18T22:49:24.790Z,22.43
2017-10-18T22:51:52.184Z,21.87
2017-10-18T22:54:19.581Z,22.43
2017-10-18T22:56:46.979Z,24.27
2017-10-18T22:59:14.371Z,23.50
2017-10-18T23:01:41.776Z,23.10
2017-10-18T23:04:09.165Z,23.57
2017-10-18T23:06:36.562Z,24.30
2017-10-18T23:09:03.977Z,24.53
2017-10-18T23:11:31.370Z,24.90
2017-10-18T23:13:58.778Z,24.30
2017-10-18T23:16:26.198Z,24.23
2017-10-18T23:18:53.608Z,24.77
2017-10-18T23:21:20.993Z,24.20
2017-10-18T23:23:48.409Z,24.27
2017-10-18T23:26:15.813Z,26.50
2017-10-18T23:28:43.214Z,23.90
2017-10-18T23:31:10.622Z,24.37
2017-10-18T23:33:38.019Z,24.33
2017-10-18T23:36:05.408Z,24.30
2017-10-18T23:38:32.814Z,25.60
2017-10-18T23:41:00.209Z,25.00
2017-10-18T23:43:27.606Z,24.60
2017-10-18T23:45:55.025Z,22.13
2017-10-18T23:48:22.413Z,24.57
2017-10-18T23:50:49.806Z,24.77
2017-10-18T23:53:17.218Z,24.50
2017-10-18T23:55:44.614Z,25.20
2017-10-18T23:58:12.006Z,25.73
